Time;durP1;ratioP1;P1;durP2;ratioP2;P2;SDS_P1;SDS_P2;PMS_P1;PMS_P2;Temp;Humidity;BMP_temperature;BMP_pressure;BME280_temperature;BME280_humidity;BME280_pressure;Samples;Min_cycle;Max_cycle;Signal;HPM_P1;HPM_P2
2023/02/04 00:00:16;;;;;;;3.08;1.20;;;18.70;46.00;;;;;;5095221;28;20186;-67
2023/02/04 00:02:44;;;;;;;1.10;1.00;;;18.70;46.00;;;;;;5095122;28;20274;-68
2023/02/04 00:05:12;;;;;;;1.40;0.90;;;18.70;46.00;;;;;;5095138;28;20594;-68
2023/02/04 00:07:39;;;;;;;2.67;1.25;;;18.70;46.00;;;;;;5095070;28;20185;-68
2023/02/04 00:10:07;;;;;;;1.10;0.93;;;18.70;46.00;;;;;;5094579;28;20772;-67
2023/02/04 00:12:36;;;;;;;2.72;1.15;;;18.60;45.90;;;;;;5095002;28;20190;-67
2023/02/04 00:15:04;;;;;;;3.28;1.13;;;18.70;46.00;;;;;;5094979;28;20186;-68
2023/02/04 00:17:32;;;;;;;3.95;1.20;;;18.60;45.90;;;;;;5094845;28;20189;-68
2023/02/04 00:19:59;;;;;;;1.52;0.90;;;18.60;45.90;;;;;;5094824;28;20202;-68
2023/02/04 00:22:27;;;;;;;2.38;1.13;;;18.60;45.90;;;;;;5094552;28;20263;-68
2023/02/04 00:24:54;;;;;;;2.03;0.90;;;18.70;46.00;;;;;;5094548;28;20202;-67
2023/02/04 00:27:22;;;;;;;2.30;0.70;;;18.70;46.00;;;;;;5094915;28;20198;-68
2023/02/04 00:29:50;;;;;;;1.73;0.82;;;18.70;46.00;;;;;;5094736;28;20641;-67
2023/02/04 00:32:17;;;;;;;6.18;1.05;;;18.70;46.00;;;;;;5094200;28;20597;-67
2023/02/04 00:34:45;;;;;;;4.15;1.10;;;18.60;45.80;;;;;;5094571;28;20637;-67
2023/02/04 00:37:12;;;;;;;2.45;1.05;;;18.60;45.90;;;;;;5094259;28;20784;-68
2023/02/04 00:39:39;;;;;;;3.00;1.08;;;18.60;45.90;;;;;;5094446;28;20259;-67
2023/02/04 00:42:07;;;;;;;3.17;1.15;;;18.60;45.90;;;;;;5092935;28;20648;-68
2023/02/04 00:44:35;;;;;;;3.05;1.00;;;18.60;45.90;;;;;;5094543;28;20218;-68
2023/02/04 00:47:04;;;;;;;1.88;1.13;;;18.60;45.90;;;;;;5093952;28;20652;-67
2023/02/04 00:49:31;;;;;;;1.35;0.70;;;18.60;45.90;;;;;;5094272;28;20226;-68
2023/02/04 00:51:58;;;;;;;2.25;1.08;;;18.60;45.90;;;;;;5094167;28;20607;-67
2023/02/04 00:54:25;;;;;;;1.17;1.05;;;18.60;45.90;;;;;;5094283;28;20275;-67
2023/02/04 00:56:52;;;;;;;2.80;1.02;;;18.60;45.90;;;;;;5094106;28;20618;-67
2023/02/04 00:59:20;;;;;;;3.33;0.90;;;18.60;45.80;;;;;;5094203;28;20218;-68
2023/02/04 01:01:47;;;;;;;1.50;0.80;;;18.60;45.80;;;;;;5093998;28;20247;-68
2023/02/04 01:04:15;;;;;;;3.63;1.05;;;18.60;45.90;;;;;;5092738;28;20226;-67
2023/02/04 01:06:43;;;;;;;2.40;1.05;;;18.60;45.80;;;;;;5093949;28;20182;-68
2023/02/04 01:09:10;;;;;;;1.48;0.93;;;18.60;45.80;;;;;;5093614;28;20214;-67
2023/02/04 01:11:37;;;;;;;4.05;0.93;;;18.50;45.80;;;;;;5093778;28;20239;-68
2023/02/04 01:14:04;;;;;;;2.70;1.10;;;18.60;45.80;;;;;;5093570;28;20256;-68
2023/02/04 01:16:31;;;;;;;3.58;1.00;;;18.50;45.80;;;;;;5093824;28;20224;-68
2023/02/04 01:18:59;;;;;;;2.45;0.80;;;18.60;45.90;;;;;;5093890;28;20213;-68
2023/02/04 01:21:27;;;;;;;3.05;0.80;;;18.50;45.80;;;;;;5093274;28;20236;-68
2023/02/04 01:23:55;;;;;;;3.25;1.17;;;18.50;45.80;;;;;;5093278;28;20233;-67
2023/02/04 01:26:22;;;;;;;2.35;1.10;;;18.50;45.80;;;;;;5093728;28;20201;-67
2023/02/04 01:28:49;;;;;;;2.58;0.90;;;18.50;45.80;;;;;;5093606;28;20218;-68
2023/02/04 01:31:16;;;;;;;2.28;1.10;;;18.50;45.70;;;;;;5093266;28;20243;-68
2023/02/04 01:33:43;;;;;;;1.50;0.90;;;18.50;45.80;;;;;;5093460;28;20266;-67
2023/02/04 01:36:11;;;;;;;2.13;1.00;;;18.50;45.70;;;;;;5093091;28;20784;-67
2023/02/04 01:38:39;;;;;;;1.35;0.98;;;18.50;45.70;;;;;;5093418;28;20279;-67
2023/02/04 01:41:07;;;;;;;1.15;0.88;;;18.50;45.80;;;;;;5092897;28;20651;-67
2023/02/04 01:43:34;;;;;;;1.40;1.00;;;18.50;45.70;;;;;;5092778;28;20752;-67
2023/02/04 01:46:02;;;;;;;0.82;0.73;;;18.50;45.70;;;;;;5092691;28;20190;-67
2023/02/04 01:48:29;;;;;;;2.63;1.00;;;18.50;45.70;;;;;;5092838;28;20224;-67
2023/02/04 01:51:03;;;;;;;1.63;1.10;;;18.50;45.70;;;;;;5093008;28;20259;-67
2023/02/04 01:53:30;;;;;;;2.30;1.00;;;18.50;45.70;;;;;;5093149;28;20220;-67
2023/02/04 01:55:59;;;;;;;1.48;0.77;;;18.50;45.60;;;;;;5092728;28;20187;-67
2023/02/04 01:58:34;;;;;;;2.63;1.10;;;18.40;45.60;;;;;;5092754;28;20240;-68
2023/02/04 02:01:01;;;;;;;1.50;1.10;;;18.40;45.60;;;;;;5092876;28;20185;-67
2023/02/04 02:03:28;;;;;;;1.17;0.85;;;18.40;45.60;;;;;;5092913;28;20274;-68
2023/02/04 02:05:56;;;;;;;2.00;0.90;;;18.40;45.50;;;;;;5093205;28;20198;-68
2023/02/04 02:08:23;;;;;;;1.92;0.90;;;18.50;45.60;;;;;;5092547;28;20210;-68
2023/02/04 02:10:51;;;;;;;0.85;0.73;;;18.40;45.50;;;;;;5092512;28;20286;-68
2023/02/04 02:13:20;;;;;;;0.88;0.80;;;18.40;45.50;;;;;;5092812;28;20214;-68
2023/02/04 02:15:48;;;;;;;1.15;0.80;;;18.50;45.50;;;;;;5092642;28;20198;-67
2023/02/04 02:18:15;;;;;;;1.48;1.00;;;18.50;45.50;;;;;;5092312;28;20260;-68
2023/02/04 02:20:43;;;;;;;2.35;0.93;;;18.50;45.50;;;;;;5092366;28;20235;-67
2023/02/04 02:23:19;;;;;;;2.72;0.90;;;18.40;45.40;;;;;;5092298;28;20255;-68
2023/02/04 02:25:49;;;;;;;1.27;0.70;;;18.40;45.50;;;;;;5092441;28;20189;-68
2023/02/04 02:28:18;;;;;;;2.03;0.80;;;18.40;45.40;;;;;;5092495;28;20214;-68
2023/02/04 02:30:48;;;;;;;2.72;0.90;;;18.40;45.40;;;;;;5092273;28;20695;-67
2023/02/04 02:33:17;;;;;;;2.22;0.90;;;18.40;46.10;;;;;;5092147;28;20220;-67
2023/02/04 02:35:47;;;;;;;1.45;0.75;;;18.40;45.40;;;;;;5092582;28;20190;-68
2023/02/04 02:38:14;;;;;;;0.85;0.77;;;18.40;45.40;;;;;;5092518;28;20217;-68
2023/02/04 02:40:42;;;;;;;2.30;0.70;;;18.40;45.40;;;;;;5092142;28;20816;-67
2023/02/04 02:43:17;;;;;;;0.93;0.70;;;18.40;45.40;;;;;;5092193;28;20753;-68
2023/02/04 02:45:45;;;;;;;1.65;0.80;;;18.40;45.40;;;;;;5092468;28;20223;-67
2023/02/04 02:48:13;;;;;;;1.33;0.80;;;18.40;45.40;;;;;;5092345;28;20214;-68
2023/02/04 02:50:41;;;;;;;4.50;0.85;;;18.40;45.40;;;;;;5091989;28;20699;-67
2023/02/04 02:53:12;;;;;;;1.17;0.88;;;18.40;45.40;;;;;;5092429;28;20190;-67
2023/02/04 02:55:39;;;;;;;2.95;0.90;;;18.30;45.30;;;;;;5092431;28;20190;-67
2023/02/04 02:58:15;;;;;;;1.02;0.82;;;18.30;45.20;;;;;;5092015;28;20182;-69
2023/02/04 03:00:42;;;;;;;1.52;0.70;;;18.40;45.40;;;;;;5092252;28;20185;-67
2023/02/04 03:03:16;;;;;;;2.40;0.70;;;18.40;45.30;;;;;;5090852;28;20198;-67
2023/02/04 03:05:47;;;;;;;1.13;0.80;;;18.30;45.30;;;;;;5091977;28;20225;-68
2023/02/04 03:08:16;;;;;;;0.93;0.82;;;18.30;45.20;;;;;;5091880;28;20260;-68
2023/02/04 03:10:44;;;;;;;1.25;0.70;;;18.30;45.30;;;;;;5092188;28;20244;-67
2023/02/04 03:13:14;;;;;;;1.10;1.00;;;18.30;45.20;;;;;;5091895;28;20220;-67
2023/02/04 03:15:43;;;;;;;1.15;0.90;;;18.40;45.20;;;;;;5092221;28;20255;-68
2023/02/04 03:18:11;;;;;;;1.05;0.73;;;18.30;45.10;;;;;;5092125;28;20186;-68
2023/02/04 03:20:39;;;;;;;1.60;0.90;;;18.30;45.10;;;;;;5092084;28;20193;-68
2023/02/04 03:23:06;;;;;;;1.17;0.80;;;18.30;45.10;;;;;;5091763;28;20222;-68
2023/02/04 03:25:33;;;;;;;2.47;0.80;;;18.30;45.10;;;;;;5092331;28;20271;-67
2023/02/04 03:28:01;;;;;;;1.55;1.00;;;18.30;45.00;;;;;;5095391;28;20249;-68
2023/02/04 03:30:30;;;;;;;1.48;0.80;;;18.30;45.00;;;;;;5095349;28;20617;-68
2023/02/04 03:32:57;;;;;;;1.60;0.90;;;18.30;45.00;;;;;;5095383;28;20656;-68
2023/02/04 03:35:25;;;;;;;1.33;0.90;;;18.30;45.00;;;;;;5095716;28;20190;-67
2023/02/04 03:37:52;;;;;;;2.17;0.98;;;18.30;45.00;;;;;;5095602;28;20186;-68
2023/02/04 03:40:19;;;;;;;1.25;0.93;;;18.30;45.00;;;;;;5095843;28;20625;-68
2023/02/04 03:42:46;;;;;;;2.08;1.00;;;18.30;45.00;;;;;;5095595;28;20243;-67
2023/02/04 03:45:13;;;;;;;1.50;0.70;;;18.30;44.90;;;;;;5095486;28;20628;-67
2023/02/04 03:47:42;;;;;;;2.67;0.80;;;18.30;45.00;;;;;;5095159;28;20213;-67
2023/02/04 03:50:12;;;;;;;2.30;0.90;;;18.30;45.00;;;;;;5095250;28;20217;-67
2023/02/04 03:52:39;;;;;;;1.15;0.80;;;18.30;45.00;;;;;;5095245;28;20243;-67
2023/02/04 03:55:07;;;;;;;1.88;0.82;;;18.30;44.90;;;;;;5095275;28;20218;-68
2023/02/04 03:57:34;;;;;;;2.00;0.90;;;18.30;44.90;;;;;;5095286;28;20333;-68
2023/02/04 04:00:01;;;;;;;0.70;0.60;;;18.20;44.80;;;;;;5095315;28;20214;-68
2023/02/04 04:02:28;;;;;;;1.98;0.90;;;18.20;44.90;;;;;;5095294;28;20194;-68
2023/02/04 04:04:58;;;;;;;1.42;0.80;;;18.20;44.80;;;;;;5095431;28;20222;-68
2023/02/04 04:07:25;;;;;;;3.08;0.85;;;18.20;44.80;;;;;;5095079;28;20193;-68
2023/02/04 04:09:52;;;;;;;1.55;0.90;;;18.20;44.80;;;;;;5095044;28;20222;-67
2023/02/04 04:12:19;;;;;;;2.17;0.75;;;18.20;44.80;;;;;;5094946;28;20214;-68
2023/02/04 04:14:47;;;;;;;2.45;1.08;;;18.20;44.80;;;;;;5094818;28;20757;-67
2023/02/04 04:17:14;;;;;;;1.10;0.80;;;18.20;44.80;;;;;;5095747;28;20251;-68
2023/02/04 04:19:42;;;;;;;0.98;0.90;;;18.20;44.80;;;;;;5094689;28;20623;-67
2023/02/04 04:22:11;;;;;;;2.25;0.70;;;18.20;44.80;;;;;;5094834;28;20568;-68
2023/02/04 04:24:38;;;;;;;1.20;1.10;;;18.20;44.80;;;;;;5094961;28;20214;-68
2023/02/04 04:27:06;;;;;;;1.73;0.90;;;18.20;44.80;;;;;;5094864;28;20194;-67
2023/02/04 04:29:33;;;;;;;0.93;0.90;;;18.20;44.80;;;;;;5094785;28;20283;-67
2023/02/04 04:32:00;;;;;;;2.67;0.85;;;18.20;44.80;;;;;;5094600;28;20213;-67
2023/02/04 04:34:27;;;;;;;3.05;0.80;;;18.20;44.80;;;;;;5094544;28;20222;-67
2023/02/04 04:36:54;;;;;;;3.58;1.10;;;18.20;44.80;;;;;;5094495;28;20186;-67
2023/02/04 04:39:23;;;;;;;1.40;0.82;;;18.20;44.80;;;;;;5094103;28;20282;-67
2023/02/04 04:41:50;;;;;;;2.47;0.93;;;18.20;44.80;;;;;;5093708;28;20202;-68
2023/02/04 04:44:17;;;;;;;1.88;0.80;;;18.20;44.70;;;;;;5094173;28;20771;-68
2023/02/04 04:46:45;;;;;;;1.95;0.98;;;18.20;44.80;;;;;;5094338;28;20194;-68
2023/02/04 04:49:12;;;;;;;1.13;0.90;;;18.20;44.70;;;;;;5093990;28;20259;-68
2023/02/04 04:51:39;;;;;;;1.75;0.75;;;18.10;44.60;;;;;;5093940;28;20267;-67
2023/02/04 04:54:06;;;;;;;1.23;1.08;;;18.20;44.80;;;;;;5094332;28;20599;-68
2023/02/04 04:56:35;;;;;;;1.60;0.95;;;18.10;44.60;;;;;;5093885;28;20734;-67
2023/02/04 04:59:02;;;;;;;1.02;0.85;;;18.20;44.70;;;;;;5094092;28;20278;-67
2023/02/04 05:01:30;;;;;;;1.23;0.88;;;18.10;44.60;;;;;;5093673;28;20561;-67
2023/02/04 05:03:57;;;;;;;2.33;0.80;;;18.20;44.70;;;;;;5093755;28;20707;-67
2023/02/04 05:06:25;;;;;;;1.88;0.80;;;18.10;44.60;;;;;;5093954;28;20604;-67
2023/02/04 05:08:52;;;;;;;1.25;0.70;;;18.10;44.60;;;;;;5093889;28;20300;-68
2023/02/04 05:11:19;;;;;;;1.15;0.70;;;18.20;44.70;;;;;;5093783;28;20214;-68
2023/02/04 05:13:48;;;;;;;1.13;0.80;;;18.20;44.70;;;;;;5093639;28;20549;-68
2023/02/04 05:16:17;;;;;;;1.38;0.90;;;18.10;44.60;;;;;;5093416;28;20247;-67
2023/02/04 05:18:44;;;;;;;1.42;0.70;;;18.20;44.70;;;;;;5093392;28;20243;-68
2023/02/04 05:21:11;;;;;;;1.73;0.80;;;18.10;44.70;;;;;;5093319;28;20281;-67
2023/02/04 05:23:38;;;;;;;0.90;0.73;;;18.10;44.60;;;;;;5093436;28;20233;-68
2023/02/04 05:26:06;;;;;;;0.88;0.70;;;18.10;44.60;;;;;;5093944;28;20663;-67
2023/02/04 05:28:33;;;;;;;3.55;1.00;;;18.10;44.60;;;;;;5093224;28;20218;-68
2023/02/04 05:31:01;;;;;;;2.60;0.85;;;18.10;44.60;;;;;;5093342;28;20213;-68
2023/02/04 05:33:28;;;;;;;0.93;0.80;;;18.10;44.60;;;;;;5093386;28;20244;-67
2023/02/04 05:35:55;;;;;;;1.30;0.73;;;18.10;44.60;;;;;;5093459;28;20258;-68
2023/02/04 05:38:23;;;;;;;0.80;0.80;;;18.10;44.60;;;;;;5093021;28;20194;-68
2023/02/04 05:40:50;;;;;;;1.40;0.80;;;18.10;44.60;;;;;;5093283;28;20198;-68
2023/02/04 05:43:17;;;;;;;1.08;0.73;;;18.10;44.60;;;;;;5093330;28;20544;-68
2023/02/04 05:45:44;;;;;;;2.08;0.80;;;18.10;44.60;;;;;;5093219;28;20190;-68
2023/02/04 05:48:12;;;;;;;1.45;0.77;;;18.10;44.60;;;;;;5092931;28;20675;-68
2023/02/04 05:50:39;;;;;;;2.45;1.10;;;18.10;44.60;;;;;;5092476;28;20259;-68
2023/02/04 05:53:06;;;;;;;0.82;0.60;;;18.10;44.60;;;;;;5093170;28;20194;-68
2023/02/04 05:55:34;;;;;;;1.20;0.90;;;18.10;44.60;;;;;;5093332;28;20628;-67
2023/02/04 05:58:01;;;;;;;4.15;0.90;;;18.10;44.70;;;;;;5093065;28;20240;-68
2023/02/04 06:00:28;;;;;;;1.02;0.60;;;18.10;44.70;;;;;;5092655;28;20214;-68
2023/02/04 06:02:55;;;;;;;2.05;0.80;;;18.20;44.70;;;;;;5093039;28;20190;-67
2023/02/04 06:05:24;;;;;;;1.70;1.00;;;18.20;44.70;;;;;;5092590;28;20768;-68
2023/02/04 06:07:51;;;;;;;1.05;0.80;;;18.20;44.70;;;;;;5092866;28;20267;-67
2023/02/04 06:10:20;;;;;;;2.33;0.75;;;18.20;44.70;;;;;;5092892;28;20217;-68
2023/02/04 06:12:47;;;;;;;3.28;0.90;;;18.20;44.70;;;;;;5092799;28;20226;-67
2023/02/04 06:15:14;;;;;;;1.90;0.80;;;18.20;44.70;;;;;;5092974;28;20265;-68
2023/02/04 06:17:41;;;;;;;2.00;0.80;;;18.20;44.70;;;;;;5092427;28;20725;-67
2023/02/04 06:20:10;;;;;;;2.17;0.70;;;18.30;44.80;;;;;;5092928;28;20683;-68
2023/02/04 06:22:39;;;;;;;1.95;0.80;;;18.30;44.80;;;;;;5092451;28;20225;-67
2023/02/04 06:25:07;;;;;;;1.48;0.82;;;18.30;44.80;;;;;;5092568;28;20214;-68
2023/02/04 06:27:34;;;;;;;1.45;0.70;;;18.30;44.80;;;;;;5092603;28;20721;-67
2023/02/04 06:30:01;;;;;;;1.50;0.80;;;18.30;44.80;;;;;;5092579;28;20642;-68
2023/02/04 06:32:28;;;;;;;1.38;1.00;;;18.40;44.80;;;;;;5092596;28;20232;-67
2023/02/04 06:34:55;;;;;;;1.08;0.73;;;18.40;44.80;;;;;;5092707;28;20214;-67
2023/02/04 06:37:22;;;;;;;2.15;0.75;;;18.30;44.80;;;;;;5092512;28;20201;-67
2023/02/04 06:39:51;;;;;;;1.13;0.70;;;18.40;44.90;;;;;;5092329;28;20625;-67
2023/02/04 06:42:18;;;;;;;0.77;0.70;;;18.40;44.80;;;;;;5092601;28;20186;-67
2023/02/04 06:44:45;;;;;;;1.42;0.80;;;18.40;44.80;;;;;;5092253;28;20648;-67
2023/02/04 06:47:12;;;;;;;2.03;0.80;;;18.40;44.80;;;;;;5092166;28;20232;-67
2023/02/04 06:49:39;;;;;;;1.60;0.95;;;18.40;44.90;;;;;;5092186;28;20710;-67
2023/02/04 06:52:06;;;;;;;1.85;0.90;;;18.40;44.90;;;;;;5092396;28;20562;-68
2023/02/04 06:54:33;;;;;;;2.10;0.80;;;18.40;44.80;;;;;;5093385;28;20263;-68
2023/02/04 06:57:05;;;;;;;1.20;0.88;;;18.40;44.80;;;;;;5092133;28;20232;-67
2023/02/04 06:59:33;;;;;;;1.25;0.88;;;18.50;45.00;;;;;;5092403;28;20371;-67
2023/02/04 07:02:00;;;;;;;1.75;0.98;;;18.40;44.80;;;;;;5095616;28;20636;-67
2023/02/04 07:04:27;;;;;;;2.45;0.90;;;18.50;44.90;;;;;;5096098;28;20697;-67
2023/02/04 07:06:54;;;;;;;1.75;1.00;;;18.50;45.00;;;;;;5096327;28;20236;-68
2023/02/04 07:09:21;;;;;;;1.70;0.90;;;18.50;44.90;;;;;;5096183;28;20218;-68
2023/02/04 07:11:48;;;;;;;0.80;0.80;;;18.50;45.00;;;;;;5095832;28;20255;-68
2023/02/04 07:14:18;;;;;;;1.63;1.00;;;18.50;44.90;;;;;;5096250;28;20214;-67
2023/02/04 07:16:45;;;;;;;1.02;0.82;;;18.50;44.90;;;;;;5096097;28;20196;-67
2023/02/04 07:19:13;;;;;;;2.00;0.88;;;18.50;44.90;;;;;;5096141;28;20273;-67
2023/02/04 07:21:40;;;;;;;1.00;0.90;;;18.50;44.90;;;;;;5095761;28;20668;-67
2023/02/04 07:24:07;;;;;;;1.70;1.00;;;18.50;44.90;;;;;;5095700;28;20234;-67
2023/02/04 07:26:34;;;;;;;1.25;0.93;;;18.50;45.00;;;;;;5096000;28;20193;-68
2023/02/04 07:29:01;;;;;;;1.88;1.00;;;18.60;45.00;;;;;;5095567;28;20620;-68
2023/02/04 07:31:30;;;;;;;1.55;0.80;;;18.60;45.00;;;;;;5095728;28;20218;-68
2023/02/04 07:33:57;;;;;;;1.13;0.75;;;18.60;45.00;;;;;;5095475;28;20244;-68
2023/02/04 07:36:25;;;;;;;2.85;0.90;;;18.60;45.00;;;;;;5095991;28;20194;-68
2023/02/04 07:38:52;;;;;;;2.72;1.00;;;18.60;45.00;;;;;;5095746;28;20251;-68
2023/02/04 07:41:19;;;;;;;3.92;1.30;;;18.60;45.00;;;;;;5095518;28;20247;-68
2023/02/04 07:43:47;;;;;;;1.65;0.90;;;18.60;45.00;;;;;;5095122;28;20225;-67
2023/02/04 07:46:14;;;;;;;2.88;0.90;;;18.60;45.00;;;;;;5095877;28;20562;-68
2023/02/04 07:48:43;;;;;;;0.85;0.70;;;18.60;45.00;;;;;;5095171;28;20183;-67
2023/02/04 07:51:10;;;;;;;0.60;0.60;;;18.60;45.00;;;;;;5095432;28;20190;-68
2023/02/04 07:53:37;;;;;;;1.83;0.77;;;18.60;45.00;;;;;;5095303;28;20305;-68
2023/02/04 07:56:05;;;;;;;1.92;1.13;;;18.60;45.00;;;;;;5095416;28;20644;-68
2023/02/04 07:58:32;;;;;;;1.08;0.93;;;18.60;45.00;;;;;;5095182;28;20186;-68
2023/02/04 08:01:00;;;;;;;1.15;0.70;;;18.60;44.90;;;;;;5095160;28;20190;-68
2023/02/04 08:03:27;;;;;;;2.17;0.70;;;18.60;45.00;;;;;;5094903;28;20205;-68
2023/02/04 08:05:56;;;;;;;1.65;0.80;;;18.70;45.00;;;;;;5095371;28;20271;-68
2023/02/04 08:08:23;;;;;;;2.45;1.10;;;18.70;45.00;;;;;;5095157;28;20197;-68
2023/02/04 08:10:50;;;;;;;1.20;0.80;;;18.70;45.00;;;;;;5094976;28;20707;-68
2023/02/04 08:13:17;;;;;;;3.33;0.80;;;18.70;45.00;;;;;;5094371;28;20210;-68
2023/02/04 08:15:44;;;;;;;1.83;0.95;;;18.70;45.00;;;;;;5094932;28;20757;-68
2023/02/04 08:18:11;;;;;;;0.80;0.70;;;18.70;45.00;;;;;;5094925;28;20186;-68
2023/02/04 08:20:38;;;;;;;0.95;0.80;;;18.70;45.00;;;;;;5095027;28;20209;-68
2023/02/04 08:23:07;;;;;;;0.90;0.73;;;18.70;44.90;;;;;;5094326;28;20236;-68
2023/02/04 08:25:34;;;;;;;3.75;0.73;;;18.70;44.90;;;;;;5096320;28;20819;-68
2023/02/04 08:28:01;;;;;;;3.67;0.95;;;18.70;44.80;;;;;;5094455;28;20190;-67
2023/02/04 08:30:28;;;;;;;1.20;0.90;;;18.70;44.80;;;;;;5094755;28;20213;-67
2023/02/04 08:32:55;;;;;;;1.45;1.00;;;18.70;44.80;;;;;;5094299;28;20210;-67
2023/02/04 08:35:22;;;;;;;2.58;0.90;;;18.70;44.80;;;;;;5094581;28;20214;-68
2023/02/04 08:37:50;;;;;;;2.70;1.20;;;18.70;44.70;;;;;;5094381;28;20591;-67
2023/02/04 08:40:18;;;;;;;1.30;0.90;;;18.70;44.80;;;;;;5094593;28;20218;-67
2023/02/04 08:42:46;;;;;;;0.85;0.77;;;18.70;44.80;;;;;;5094482;28;20243;-68
2023/02/04 08:45:13;;;;;;;2.05;1.00;;;18.70;44.70;;;;;;5094421;28;20218;-68
2023/02/04 08:47:40;;;;;;;2.60;1.25;;;18.80;44.70;;;;;;5094370;28;20186;-67
2023/02/04 08:50:09;;;;;;;1.83;0.88;;;18.80;44.70;;;;;;5094409;28;20688;-67
2023/02/04 08:52:36;;;;;;;1.40;1.00;;;18.80;44.70;;;;;;5094269;28;20210;-67
2023/02/04 08:55:04;;;;;;;1.77;0.90;;;18.80;44.70;;;;;;5094369;28;20309;-67
2023/02/04 08:57:33;;;;;;;2.92;0.90;;;18.80;44.70;;;;;;5094160;28;20235;-67
2023/02/04 09:00:00;;;;;;;1.90;1.00;;;18.80;44.70;;;;;;5094211;28;20218;-67
2023/02/04 09:02:28;;;;;;;1.35;1.08;;;18.80;44.70;;;;;;5094045;28;20198;-68
2023/02/04 09:04:55;;;;;;;2.75;0.90;;;18.80;44.70;;;;;;5093654;28;20703;-67
2023/02/04 09:07:22;;;;;;;1.75;0.93;;;18.80;44.70;;;;;;5093866;28;20190;-67
2023/02/04 09:09:49;;;;;;;1.73;0.90;;;18.80;44.60;;;;;;5093625;28;20221;-67
2023/02/04 09:12:16;;;;;;;4.57;0.90;;;18.80;44.60;;;;;;5093772;28;20209;-67
2023/02/04 09:14:45;;;;;;;2.78;0.88;;;18.80;44.50;;;;;;5093906;28;20226;-67
2023/02/04 09:17:12;;;;;;;2.50;1.00;;;18.80;44.60;;;;;;5093445;28;20190;-67
2023/02/04 09:19:40;;;;;;;1.35;1.05;;;18.80;44.50;;;;;;5093289;28;20571;-67
2023/02/04 09:22:07;;;;;;;2.50;0.95;;;18.80;44.50;;;;;;5093615;28;20194;-68
2023/02/04 09:24:34;;;;;;;2.22;1.05;;;18.80;44.40;;;;;;5092366;28;20238;-67
2023/02/04 09:27:01;;;;;;;5.32;0.95;;;18.80;44.50;;;;;;5093849;28;20198;-68
2023/02/04 09:29:28;;;;;;;1.45;0.90;;;18.80;44.40;;;;;;5093587;28;20266;-67
2023/02/04 09:31:57;;;;;;;2.63;1.10;;;18.80;44.40;;;;;;5093088;28;20709;-68
2023/02/04 09:34:24;;;;;;;1.52;1.13;;;18.90;44.50;;;;;;5093199;28;20259;-67
2023/02/04 09:36:51;;;;;;;2.30;1.00;;;18.80;44.40;;;;;;5091946;28;20660;-68
2023/02/04 09:39:18;;;;;;;2.33;0.85;;;18.90;44.50;;;;;;5093461;28;20563;-67
2023/02/04 09:41:45;;;;;;;1.85;0.98;;;18.90;44.50;;;;;;5093334;28;20186;-68
2023/02/04 09:44:16;;;;;;;2.22;0.90;;;18.90;44.50;;;;;;5093027;28;20221;-68
2023/02/04 09:46:47;;;;;;;1.35;0.80;;;18.90;44.40;;;;;;5093282;28;20194;-68
2023/02/04 09:49:16;;;;;;;1.42;0.70;;;18.90;44.40;;;;;;5093087;28;20228;-68
2023/02/04 09:51:46;;;;;;;1.60;0.90;;;18.90;44.40;;;;;;5092810;28;20652;-67
2023/02/04 09:54:16;;;;;;;2.25;1.02;;;18.90;44.40;;;;;;5093048;28;20275;-67
2023/02/04 09:56:43;;;;;;;1.23;0.80;;;18.90;44.40;;;;;;5092802;28;20194;-68
2023/02/04 09:59:12;;;;;;;3.63;1.15;;;18.90;44.40;;;;;;5092651;28;20259;-68
2023/02/04 10:01:40;;;;;;;1.52;0.80;;;18.90;44.40;;;;;;5092980;28;20190;-68
2023/02/04 10:04:11;;;;;;;2.03;1.00;;;18.90;44.30;;;;;;5092634;28;20186;-68
2023/02/04 10:06:40;;;;;;;2.05;0.90;;;18.90;44.30;;;;;;5092640;28;20208;-67
2023/02/04 10:09:10;;;;;;;2.35;1.10;;;18.90;44.30;;;;;;5092798;28;20186;-67
2023/02/04 10:11:40;;;;;;;1.15;0.70;;;18.90;44.30;;;;;;5092897;28;20186;-67
2023/02/04 10:14:13;;;;;;;1.27;1.00;;;18.90;44.30;;;;;;5092771;28;20263;-68
2023/02/04 10:16:42;;;;;;;1.40;0.82;;;18.90;44.30;;;;;;5092552;28;20196;-67
2023/02/04 10:19:14;;;;;;;2.17;1.00;;;18.90;44.20;;;;;;5092675;28;20190;-68
2023/02/04 10:21:45;;;;;;;1.30;0.90;;;18.90;44.20;;;;;;5092759;28;20192;-68
2023/02/04 10:24:16;;;;;;;1.48;0.90;;;18.90;44.20;;;;;;5092492;28;20229;-67
2023/02/04 10:26:43;;;;;;;3.88;1.20;;;18.90;44.20;;;;;;5092439;28;20247;-68
2023/02/04 10:29:16;;;;;;;1.10;1.00;;;18.90;44.20;;;;;;5092315;28;20713;-68
2023/02/04 10:31:45;;;;;;;3.22;0.90;;;18.90;44.10;;;;;;5092585;28;20194;-68
2023/02/04 10:34:15;;;;;;;1.40;0.93;;;18.90;44.10;;;;;;5092173;28;20751;-68
2023/02/04 10:36:46;;;;;;;1.27;1.00;;;18.90;44.10;;;;;;5092127;28;20194;-68
2023/02/04 10:39:15;;;;;;;1.70;0.80;;;18.90;44.10;;;;;;5092500;28;20225;-68
2023/02/04 10:41:47;;;;;;;1.60;1.00;;;18.90;44.10;;;;;;5092489;28;20182;-67
2023/02/04 10:44:16;;;;;;;2.00;1.05;;;18.90;44.10;;;;;;5092206;28;20219;-68
2023/02/04 10:46:44;;;;;;;1.55;0.93;;;18.90;44.10;;;;;;5092195;28;20197;-67
2023/02/04 10:49:22;;;;;;;2.58;1.00;;;18.90;44.00;;;;;;5092371;28;20250;-67
2023/02/04 10:51:52;;;;;;;1.30;0.90;;;18.90;44.00;;;;;;5091921;28;20186;-68
2023/02/04 10:54:29;;;;;;;2.92;0.98;;;18.90;44.00;;;;;;5092366;28;20230;-67
2023/02/04 10:56:56;;;;;;;1.17;0.90;;;18.90;44.00;;;;;;5092099;28;20721;-68
2023/02/04 10:59:27;;;;;;;2.53;1.00;;;18.90;43.90;;;;;;5092290;28;20263;-67
2023/02/04 11:01:56;;;;;;;1.70;0.90;;;18.90;43.90;;;;;;5092318;28;20251;-67
2023/02/04 11:04:24;;;;;;;1.90;1.20;;;18.90;43.90;;;;;;5092352;28;20222;-67
2023/02/04 11:06:53;;;;;;;1.30;0.90;;;18.90;43.90;;;;;;5092351;28;20635;-68
2023/02/04 11:09:20;;;;;;;1.55;0.90;;;18.90;43.90;;;;;;5092184;28;20185;-68
2023/02/04 11:11:48;;;;;;;1.23;0.98;;;18.90;43.80;;;;;;5091942;28;20236;-67
2023/02/04 11:14:25;;;;;;;2.67;0.98;;;18.90;43.80;;;;;;5092076;28;20271;-68
2023/02/04 11:16:53;;;;;;;1.67;1.20;;;19.00;43.90;;;;;;5092280;28;20243;-68
2023/02/04 11:19:33;;;;;;;1.92;1.10;;;18.90;43.90;;;;;;5092104;28;20209;-68
2023/02/04 11:22:23;;;;;;;4.85;1.23;;;18.90;43.80;;;;;;5091827;28;20186;-68
2023/02/04 11:24:52;;;;;;;1.20;0.98;;;18.90;43.80;;;;;;5092290;28;20218;-68
2023/02/04 11:27:23;;;;;;;1.73;1.10;;;19.00;43.90;;;;;;5092350;28;20239;-68
2023/02/04 11:29:50;;;;;;;1.65;0.82;;;19.00;43.90;;;;;;5092070;28;20214;-68
2023/02/04 11:32:30;;;;;;;2.15;1.33;;;18.90;43.80;;;;;;5091701;28;20600;-68
2023/02/04 11:35:27;;;;;;;1.65;0.93;;;19.00;43.80;;;;;;5091808;28;20703;-68
2023/02/04 11:37:57;;;;;;;1.80;1.20;;;18.90;43.70;;;;;;5092296;28;20198;-68
2023/02/04 11:40:28;;;;;;;1.13;0.90;;;18.90;43.70;;;;;;5091871;28;20222;-67
2023/02/04 11:43:04;;;;;;;2.20;1.10;;;19.00;43.80;;;;;;5091679;28;20198;-67
2023/02/04 11:45:33;;;;;;;5.43;1.13;;;19.00;43.80;;;;;;5091941;28;20606;-68
2023/02/04 11:48:03;;;;;;;2.58;0.90;;;19.00;43.70;;;;;;5093327;28;20196;-68
2023/02/04 11:50:33;;;;;;;3.53;1.08;;;18.90;43.60;;;;;;5095249;28;20243;-67
2023/02/04 11:53:02;;;;;;;1.95;1.10;;;19.00;43.70;;;;;;5095163;28;20262;-67
2023/02/04 11:55:30;;;;;;;2.47;1.10;;;19.00;43.60;;;;;;5095215;28;20301;-68
2023/02/04 11:57:58;;;;;;;2.70;1.33;;;19.00;43.60;;;;;;5095108;28;20709;-68
2023/02/04 12:00:26;;;;;;;2.28;1.23;;;19.00;43.60;;;;;;5095230;28;20268;-68
2023/02/04 12:02:57;;;;;;;2.50;0.98;;;19.00;43.60;;;;;;5095007;28;20197;-67
2023/02/04 12:05:38;;;;;;;2.08;1.10;;;18.90;43.50;;;;;;5095288;28;20577;-68
2023/02/04 12:08:25;;;;;;;1.52;1.00;;;19.00;43.60;;;;;;5094868;28;20255;-68
2023/02/04 12:11:01;;;;;;;2.40;0.90;;;19.00;43.60;;;;;;5094863;28;20750;-68
2023/02/04 12:13:28;;;;;;;3.72;1.05;;;19.00;43.60;;;;;;5094704;28;20209;-68
2023/02/04 12:15:59;;;;;;;2.10;1.20;;;19.00;43.60;;;;;;5095201;28;20640;-67
2023/02/04 12:18:27;;;;;;;2.35;1.00;;;19.00;43.50;;;;;;5094664;28;20194;-67
2023/02/04 12:20:55;;;;;;;5.53;1.20;;;19.00;43.50;;;;;;5094713;28;20220;-68
2023/02/04 12:23:24;;;;;;;2.95;1.40;;;19.00;43.50;;;;;;5094393;28;20729;-67
2023/02/04 12:25:51;;;;;;;2.20;1.10;;;19.00;43.50;;;;;;5094758;28;20271;-67
2023/02/04 12:28:18;;;;;;;2.92;1.10;;;19.00;43.40;;;;;;5094480;28;20232;-68
2023/02/04 12:30:46;;;;;;;3.55;1.20;;;19.00;43.40;;;;;;5094694;28;20218;-68
2023/02/04 12:33:13;;;;;;;2.67;1.20;;;19.00;43.40;;;;;;5094331;28;20206;-68
2023/02/04 12:35:41;;;;;;;1.92;1.20;;;19.00;43.40;;;;;;5094702;28;20262;-68
2023/02/04 12:38:09;;;;;;;3.45;1.02;;;19.00;43.40;;;;;;5094611;28;20190;-68
2023/02/04 12:40:38;;;;;;;2.42;1.50;;;19.00;43.40;;;;;;5094341;28;20906;-68
2023/02/04 12:43:06;;;;;;;1.80;1.10;;;19.00;43.40;;;;;;5094448;28;20194;-69
2023/02/04 12:45:33;;;;;;;3.38;1.20;;;19.00;43.40;;;;;;5094278;28;20218;-70
2023/02/04 12:48:01;;;;;;;2.72;1.42;;;19.00;43.10;;;;;;5095962;28;20186;-70
2023/02/04 12:50:28;;;;;;;3.15;1.50;;;19.00;43.20;;;;;;5105250;28;20272;-69
2023/02/04 12:52:57;;;;;;;1.85;1.20;;;19.00;42.90;;;;;;5112582;28;20651;-69